Time;durP1;ratioP1;P1;durP2;ratioP2;P2;SDS_P1;SDS_P2;PMS_P1;PMS_P2;Temp;Humidity;BMP_temperature;BMP_pressure;BME280_temperature;BME280_humidity;BME280_pressure;Samples;Min_cycle;Max_cycle;Signal;HPM_P1;HPM_P2
2023/12/16 00:00:59;;;;;;;;;;;;;;;11.90;53.53;102858.53;4990788;28;6994;-74
2023/12/16 00:03:26;;;;;;;;;;;;;;;11.88;54.18;102865.19;4994288;28;6804;-74
2023/12/16 00:05:53;;;;;;;;;;;;;;;11.86;54.29;102865.06;4975862;28;7182;-74
2023/12/16 00:08:19;;;;;;;;;;;;;;;11.85;53.95;102864.94;4986396;28;7233;-74
2023/12/16 00:10:44;;;;;;;;;;;;;;;11.84;53.67;102873.44;4983199;28;7860;-74
2023/12/16 00:13:10;;;;;;;;;;;;;;;11.83;53.94;102871.63;4988557;28;7023;-74
2023/12/16 00:15:35;;;;;;;;;;;;;;;11.81;53.58;102866.34;4989691;28;6866;-74
2023/12/16 00:18:01;;;;;;;;;;;;;;;11.80;53.93;102869.69;4986259;28;6859;-74
2023/12/16 00:20:26;;;;;;;;;;;;;;;11.80;54.35;102880.88;4987097;28;6784;-74
2023/12/16 00:22:52;;;;;;;;;;;;;;;11.79;54.29;102879.09;4989360;28;7848;-74
2023/12/16 00:25:18;;;;;;;;;;;;;;;11.79;54.49;102881.66;4988904;28;6951;-74
2023/12/16 00:27:43;;;;;;;;;;;;;;;11.78;54.46;102877.31;5001317;28;6787;-74
2023/12/16 00:30:09;;;;;;;;;;;;;;;11.79;53.97;102881.66;4976578;28;7366;-74
2023/12/16 00:32:34;;;;;;;;;;;;;;;11.78;54.24;102877.31;4983284;28;11640;-74
2023/12/16 00:35:00;;;;;;;;;;;;;;;11.78;53.94;102879.88;4983980;28;7538;-75
2023/12/16 00:37:26;;;;;;;;;;;;;;;11.79;53.62;102881.66;4992698;28;7296;-75
2023/12/16 00:39:51;;;;;;;;;;;;;;;11.78;53.96;102879.88;4990897;28;7372;-74
2023/12/16 00:42:17;;;;;;;;;;;;;;;11.78;54.01;102879.88;4990501;28;7094;-74
2023/12/16 00:44:43;;;;;;;;;;;;;;;11.77;53.82;102883.19;4990482;28;6977;-74
2023/12/16 00:47:08;;;;;;;;;;;;;;;11.78;53.41;102871.25;4971013;28;6959;-75
2023/12/16 00:49:34;;;;;;;;;;;;;;;11.76;53.82;102868.53;4979973;28;7010;-74
2023/12/16 00:51:59;;;;;;;;;;;;;;;11.76;53.17;102873.69;4971991;28;6948;-74
2023/12/16 00:54:26;;;;;;;;;;;;;;;11.75;53.94;102871.00;5003549;28;7246;-74
2023/12/16 00:56:51;;;;;;;;;;;;;;;11.74;53.64;102864.06;4991835;28;7338;-74
2023/12/16 00:59:17;;;;;;;;;;;;;;;11.73;53.27;102868.31;4985641;28;7189;-75
2023/12/16 01:01:42;;;;;;;;;;;;;;;11.72;53.47;102857.88;4990910;28;6792;-76
2023/12/16 01:04:09;;;;;;;;;;;;;;;11.73;53.00;102867.38;4984602;28;7645;-74
2023/12/16 01:06:34;;;;;;;;;;;;;;;11.72;53.62;102866.50;4982358;28;7007;-74
2023/12/16 01:09:00;;;;;;;;;;;;;;;11.70;52.88;102856.88;4986075;28;6943;-74
2023/12/16 01:11:25;;;;;;;;;;;;;;;11.70;53.05;102862.91;4970898;28;6971;-74
2023/12/16 01:13:51;;;;;;;;;;;;;;;11.69;53.16;102856.00;4988159;28;8012;-75
2023/12/16 01:16:16;;;;;;;;;;;;;;;11.69;52.81;102848.28;4984667;28;6807;-74
2023/12/16 01:18:42;;;;;;;;;;;;;;;11.70;53.33;102849.16;4997644;28;6955;-74
2023/12/16 01:21:08;;;;;;;;;;;;;;;11.70;53.26;102851.72;4973797;28;6963;-74
2023/12/16 01:23:34;;;;;;;;;;;;;;;11.70;53.17;102851.72;4982994;28;6986;-75
2023/12/16 01:26:00;;;;;;;;;;;;;;;11.70;53.05;102852.66;4987961;28;6851;-74
2023/12/16 01:28:25;;;;;;;;;;;;;;;11.70;53.06;102857.78;4984211;28;6963;-74
2023/12/16 01:30:51;;;;;;;;;;;;;;;11.69;52.61;102858.56;5005907;28;6948;-74
2023/12/16 01:33:16;;;;;;;;;;;;;;;11.71;52.34;102864.72;4985905;28;7675;-74
2023/12/16 01:35:42;;;;;;;;;;;;;;;11.72;52.06;102876.78;4989029;28;7159;-74
2023/12/16 01:38:07;;;;;;;;;;;;;;;11.73;52.54;102880.22;4983431;28;6946;-74
2023/12/16 01:40:33;;;;;;;;;;;;;;;11.75;51.67;102882.16;4983048;28;7663;-74
2023/12/16 01:43:03;;;;;;;;;;;;;;;11.75;52.13;102879.59;4988367;28;6862;-74
2023/12/16 01:45:29;;;;;;;;;;;;;;;11.77;52.08;102885.75;4987857;28;6827;-74
2023/12/16 01:47:55;;;;;;;;;;;;;;;11.76;51.72;102878.81;4988206;28;7030;-74
2023/12/16 01:50:21;;;;;;;;;;;;;;;11.77;51.72;102884.88;4984463;28;6888;-75
2023/12/16 01:52:46;;;;;;;;;;;;;;;11.74;51.47;102877.81;4987967;28;7262;-75
2023/12/16 01:55:13;;;;;;;;;;;;;;;11.75;51.66;102881.28;4991792;28;6843;-75
2023/12/16 01:57:41;;;;;;;;;;;;;;;11.75;51.30;102886.44;4991319;28;6796;-74
2023/12/16 02:00:09;;;;;;;;;;;;;;;11.74;51.64;102882.94;4991344;28;6943;-80
2023/12/16 02:02:34;;;;;;;;;;;;;;;11.75;50.83;102879.59;4971031;28;6811;-80
2023/12/16 02:05:00;;;;;;;;;;;;;;;11.76;51.02;102878.81;5004865;28;6812;-80
2023/12/16 02:07:26;;;;;;;;;;;;;;;11.77;51.63;102884.88;4985302;28;6855;-78
2023/12/16 02:09:51;;;;;;;;;;;;;;;11.77;50.74;102884.88;4990328;28;6795;-80
2023/12/16 02:12:19;;;;;;;;;;;;;;;11.77;51.13;102884.88;4969540;28;7040;-78
2023/12/16 02:14:45;;;;;;;;;;;;;;;11.78;50.50;102881.53;4970440;28;7945;-81
2023/12/16 02:17:10;;;;;;;;;;;;;;;11.78;50.50;102886.66;4986325;28;6791;-80
2023/12/16 02:19:36;;;;;;;;;;;;;;;11.77;50.66;102890.00;4974214;28;7276;-79
2023/12/16 02:22:02;;;;;;;;;;;;;;;11.77;50.65;102892.59;4979014;28;6803;-80
2023/12/16 02:24:29;;;;;;;;;;;;;;;11.77;50.73;102893.47;4984861;28;6852;-81
2023/12/16 02:26:55;;;;;;;;;;;;;;;11.75;50.67;102886.44;4987411;28;7897;-77
2023/12/16 02:29:21;;;;;;;;;;;;;;;11.75;50.16;102881.28;4972224;28;7201;-80
2023/12/16 02:31:46;;;;;;;;;;;;;;;11.76;50.28;102872.81;4987779;28;6884;-81
2023/12/16 02:34:12;;;;;;;;;;;;;;;11.75;50.33;102871.00;4983404;28;6864;-80
2023/12/16 02:36:37;;;;;;;;;;;;;;;11.74;50.71;102859.81;4987488;28;6945;-81
2023/12/16 02:39:03;;;;;;;;;;;;;;;11.74;50.81;102870.09;4989943;28;6959;-80
2023/12/16 02:41:28;;;;;;;;;;;;;;;11.75;50.59;102871.00;4994356;28;6783;-82
2023/12/16 02:43:54;;;;;;;;;;;;;;;11.74;50.39;102862.38;4977282;28;7272;-81
2023/12/16 02:46:20;;;;;;;;;;;;;;;11.74;50.88;102864.06;5007702;28;7134;-80
2023/12/16 02:48:45;;;;;;;;;;;;;;;11.75;50.29;102871.00;4987531;28;6859;-81
2023/12/16 02:51:18;;;;;;;;;;;;;;;11.75;50.19;102869.31;4989872;28;6799;-81
2023/12/16 02:53:44;;;;;;;;;;;;;;;11.75;50.41;102866.75;4983537;28;6829;-80
2023/12/16 02:56:09;;;;;;;;;;;;;;;11.75;50.27;102861.63;4990738;28;6832;-81
2023/12/16 02:58:35;;;;;;;;;;;;;;;11.74;49.99;102857.25;4971198;28;7234;-80
2023/12/16 03:01:00;;;;;;;;;;;;;;;11.75;50.54;102861.63;4985012;28;6977;-81
2023/12/16 03:03:26;;;;;;;;;;;;;;;11.73;50.38;102855.47;4970821;28;7931;-81
2023/12/16 03:05:51;;;;;;;;;;;;;;;11.73;50.53;102850.31;4978535;28;6803;-79
2023/12/16 03:08:17;;;;;;;;;;;;;;;11.71;50.57;102857.00;4990160;28;6803;-81
2023/12/16 03:10:42;;;;;;;;;;;;;;;11.72;50.61;102861.38;4989465;28;7181;-80
2023/12/16 03:13:08;;;;;;;;;;;;;;;11.73;50.28;102867.38;4989586;28;6864;-81
2023/12/16 03:15:33;;;;;;;;;;;;;;;11.73;50.66;102864.81;4986816;28;6791;-79
2023/12/16 03:17:59;;;;;;;;;;;;;;;11.73;50.04;102872.53;4986874;28;7063;-80
2023/12/16 03:20:24;;;;;;;;;;;;;;;11.73;50.00;102873.44;4983241;28;6792;-77
2023/12/16 03:22:51;;;;;;;;;;;;;;;11.73;49.77;102870.88;4987467;28;7065;-81
2023/12/16 03:25:16;;;;;;;;;;;;;;;11.74;49.92;102869.22;4990786;28;7355;-81
2023/12/16 03:27:41;;;;;;;;;;;;;;;11.74;50.64;102869.22;4985276;28;6795;-79
2023/12/16 03:30:07;;;;;;;;;;;;;;;11.73;50.19;102868.31;4983853;28;7194;-80
2023/12/16 03:32:33;;;;;;;;;;;;;;;11.74;50.01;102861.50;4990116;28;6986;-81
2023/12/16 03:34:58;;;;;;;;;;;;;;;11.74;50.36;102864.97;4986166;28;7155;-80
2023/12/16 03:37:24;;;;;;;;;;;;;;;11.74;50.06;102862.38;4983343;28;7012;-80
2023/12/16 03:39:49;;;;;;;;;;;;;;;11.75;49.57;102864.19;4989265;28;6791;-81
2023/12/16 03:42:15;;;;;;;;;;;;;;;11.75;49.86;102853.91;4988662;28;7010;-80
2023/12/16 03:44:41;;;;;;;;;;;;;;;11.75;50.17;102858.16;4973661;28;7012;-79
2023/12/16 03:47:07;;;;;;;;;;;;;;;11.74;50.00;102849.53;5001008;28;7252;-80
2023/12/16 03:49:32;;;;;;;;;;;;;;;11.75;49.50;102846.19;4985074;28;6779;-81
2023/12/16 03:51:58;;;;;;;;;;;;;;;11.75;50.19;102846.19;4986549;28;6795;-78
2023/12/16 03:54:24;;;;;;;;;;;;;;;11.75;49.76;102845.31;4988484;28;6991;-80
2023/12/16 03:56:49;;;;;;;;;;;;;;;11.75;49.82;102846.19;4974949;28;7052;-78
2023/12/16 03:59:14;;;;;;;;;;;;;;;11.75;49.42;102845.31;5001965;28;7311;-80
2023/12/16 04:01:44;;;;;;;;;;;;;;;11.73;50.22;102840.03;4986153;28;7135;-77
2023/12/16 04:04:09;;;;;;;;;;;;;;;11.74;50.20;102834.13;4982640;28;7165;-81
2023/12/16 04:06:35;;;;;;;;;;;;;;;11.74;49.35;102839.25;4988111;28;10329;-80
2023/12/16 04:09:01;;;;;;;;;;;;;;;11.73;49.62;102834.91;4975303;28;6959;-80
2023/12/16 04:11:26;;;;;;;;;;;;;;;11.72;49.49;102830.53;4993292;28;6964;-81
2023/12/16 04:13:52;;;;;;;;;;;;;;;11.72;50.12;102833.09;4965594;28;6976;-81
2023/12/16 04:16:19;;;;;;;;;;;;;;;11.70;49.60;102828.59;4987271;28;6825;-81
2023/12/16 04:18:45;;;;;;;;;;;;;;;11.68;49.87;102831.03;4983461;28;7063;-80
2023/12/16 04:21:11;;;;;;;;;;;;;;;11.64;49.68;102844.41;4975102;28;6967;-85
2023/12/16 04:23:36;;;;;;;;;;;;;;;11.60;50.10;102837.25;4966404;28;7104;-82
2023/12/16 04:26:02;;;;;;;;;;;;;;;11.57;50.45;102831.84;4983436;28;7242;-78
2023/12/16 04:28:27;;;;;;;;;;;;;;;11.52;50.18;102837.50;4990023;28;6795;-82
2023/12/16 04:30:53;;;;;;;;;;;;;;;11.54;50.07;102853.03;4976791;28;6965;-81
2023/12/16 04:33:18;;;;;;;;;;;;;;;11.51;50.64;102845.06;4968629;28;6970;-80
2023/12/16 04:35:44;;;;;;;;;;;;;;;11.51;50.87;102847.63;4988537;28;7131;-80
2023/12/16 04:38:09;;;;;;;;;;;;;;;11.50;50.75;102839.03;4992950;28;6772;-81
2023/12/16 04:40:35;;;;;;;;;;;;;;;11.52;50.30;102834.94;4990150;28;6779;-79
2023/12/16 04:43:00;;;;;;;;;;;;;;;11.52;50.37;102832.34;4997662;28;6945;-82
2023/12/16 04:45:26;;;;;;;;;;;;;;;11.52;50.77;102840.06;4990072;28;6784;-85
2023/12/16 04:47:51;;;;;;;;;;;;;;;11.53;50.79;102838.38;4994094;28;6967;-81
2023/12/16 04:50:17;;;;;;;;;;;;;;;11.55;50.79;102846.22;4995070;28;6965;-82
2023/12/16 04:52:43;;;;;;;;;;;;;;;11.57;50.31;102847.25;4994078;28;7447;-84
2023/12/16 04:55:09;;;;;;;;;;;;;;;11.57;49.99;102840.44;4994366;28;6807;-79
2023/12/16 04:57:35;;;;;;;;;;;;;;;11.61;50.46;102846.75;4990441;28;7270;-84
2023/12/16 05:00:00;;;;;;;;;;;;;;;11.62;50.14;102853.69;4981347;28;7008;-82
2023/12/16 05:02:26;;;;;;;;;;;;;;;11.63;50.03;102861.47;4990161;28;7114;-82
2023/12/16 05:04:51;;;;;;;;;;;;;;;11.63;50.46;102851.22;4983695;28;6998;-84
2023/12/16 05:07:17;;;;;;;;;;;;;;;11.65;50.55;102864.19;4989201;28;6972;-84
2023/12/16 05:09:42;;;;;;;;;;;;;;;11.65;49.93;102857.41;5007602;28;6804;-83
2023/12/16 05:12:08;;;;;;;;;;;;;;;11.67;50.01;102858.41;4975656;28;6808;-82
2023/12/16 05:14:33;;;;;;;;;;;;;;;11.69;50.68;102852.50;4979237;28;7053;-83
2023/12/16 05:16:59;;;;;;;;;;;;;;;11.71;50.36;102849.31;4996101;28;6772;-83
2023/12/16 05:19:25;;;;;;;;;;;;;;;11.73;50.30;102852.88;4999390;28;6792;-84
2023/12/16 05:21:50;;;;;;;;;;;;;;;11.74;49.76;102864.97;5006590;28;6983;-81
2023/12/16 05:26:51;;;;;;;;;;;;;;;11.77;49.71;102864.31;4981145;28;6875;-86
2023/12/16 05:29:17;;;;;;;;;;;;;;;11.78;49.80;102867.03;4959828;28;7298;-88
2023/12/16 05:31:42;;;;;;;;;;;;;;;11.80;49.90;102869.69;4939455;28;6768;-88
2023/12/16 05:34:10;;;;;;;;;;;;;;;11.80;50.06;102870.63;4922224;28;8453;-88
2023/12/16 05:36:35;;;;;;;;;;;;;;;11.85;50.27;102877.78;4922420;28;7141;-89
2023/12/16 05:39:01;;;;;;;;;;;;;;;11.80;49.84;102857.75;4944659;28;6981;-91
2023/12/16 05:41:27;;;;;;;;;;;;;;;11.84;49.78;102868.28;4943083;28;8700;-91
2023/12/16 05:43:52;;;;;;;;;;;;;;;11.84;49.98;102868.28;4948167;28;6953;-91
2023/12/16 05:46:18;;;;;;;;;;;;;;;11.85;50.13;102867.50;4964410;28;8491;-91
2023/12/16 05:48:43;;;;;;;;;;;;;;;11.83;50.01;102863.91;4935938;28;8446;-91
2023/12/16 05:51:19;;;;;;;;;;;;;;;11.83;49.73;102869.06;4930634;28;8440;-91
2023/12/16 05:53:50;;;;;;;;;;;;;;;11.80;49.79;102873.19;4944596;28;6979;-91
2023/12/16 05:56:16;;;;;;;;;;;;;;;11.81;49.71;102872.41;4942892;28;7207;-91
2023/12/16 05:58:46;;;;;;;;;;;;;;;11.85;50.12;102872.66;4938509;28;7254;-91
2023/12/16 06:01:19;;;;;;;;;;;;;;;11.85;50.09;102873.56;4950782;28;7135;-92
2023/12/16 06:03:47;;;;;;;;;;;;;;;11.85;49.93;102872.66;4962705;28;7183;-92
2023/12/16 06:06:19;;;;;;;;;;;;;;;11.84;50.13;102869.19;4935159;28;7129;-91
2023/12/16 06:08:44;;;;;;;;;;;;;;;11.86;50.29;102869.31;4943075;28;6967;-91
2023/12/16 06:11:13;;;;;;;;;;;;;;;11.86;49.56;102879.59;4954849;28;7027;-91
2023/12/16 06:13:42;;;;;;;;;;;;;;;11.87;50.52;102891.66;4965421;28;8122;-91
2023/12/16 06:16:16;;;;;;;;;;;;;;;11.87;49.39;102883.94;4953543;28;6957;-91
2023/12/16 06:18:56;;;;;;;;;;;;;;;11.87;49.85;102872.00;4940325;28;6842;-92
2023/12/16 06:21:31;;;;;;;;;;;;;;;11.86;50.15;102874.44;4962198;28;6983;-92
2023/12/16 06:24:00;;;;;;;;;;;;;;;11.87;50.09;102877.16;4950749;28;7174;-91
2023/12/16 06:26:33;;;;;;;;;;;;;;;11.85;50.04;102873.56;4944860;28;7046;-91
2023/12/16 06:29:02;;;;;;;;;;;;;;;11.86;50.59;102879.59;4939731;28;8470;-91
2023/12/16 06:31:28;;;;;;;;;;;;;;;11.84;49.89;102887.19;4928913;28;7078;-91
2023/12/16 06:33:53;;;;;;;;;;;;;;;11.78;49.37;102879.88;4954079;28;6757;-91
2023/12/16 06:36:29;;;;;;;;;;;;;;;11.75;50.20;102883.84;4949703;28;6936;-91
2023/12/16 06:38:58;;;;;;;;;;;;;;;11.70;50.03;102888.59;4947890;28;7171;-92
2023/12/16 06:41:33;;;;;;;;;;;;;;;11.57;50.19;102880.63;4955129;28;6933;-91
2023/12/16 06:43:59;;;;;;;;;;;;;;;11.51;50.24;102887.06;4943702;28;7075;-91
2023/12/16 06:46:27;;;;;;;;;;;;;;;11.44;49.83;102884.75;4927990;28;7260;-91
2023/12/16 06:48:55;;;;;;;;;;;;;;;11.35;50.09;102878.84;4946652;28;6951;-92
2023/12/16 06:51:21;;;;;;;;;;;;;;;11.30;50.28;102890.38;4944324;28;6829;-91
2023/12/16 06:53:47;;;;;;;;;;;;;;;11.20;50.20;102874.22;4953893;28;6962;-91
2023/12/16 06:56:29;;;;;;;;;;;;;;;11.15;50.79;102874.56;4933768;28;6931;-92
2023/12/16 06:59:12;;;;;;;;;;;;;;;11.09;51.17;102877.50;4954968;28;6793;-93
2023/12/16 07:01:58;;;;;;;;;;;;;;;11.05;51.16;102889.16;5001712;23;7875;-93
2023/12/16 07:04:40;;;;;;;;;;;;;;;11.01;51.04;102891.34;4982333;28;7176;-94
2023/12/16 07:07:06;;;;;;;;;;;;;;;10.95;50.82;102895.19;4963006;28;6965;-91
2023/12/16 07:09:32;;;;;;;;;;;;;;;10.94;51.29;102895.97;4976006;28;7006;-92
2023/12/16 07:11:57;;;;;;;;;;;;;;;10.91;51.20;102898.28;4965047;28;6758;-92
2023/12/16 07:14:23;;;;;;;;;;;;;;;10.84;51.36;102895.94;4980886;28;7014;-91
2023/12/16 07:16:49;;;;;;;;;;;;;;;10.82;51.56;102906.06;4981359;28;6794;-92
2023/12/16 07:19:20;;;;;;;;;;;;;;;10.77;51.65;102912.47;4960946;28;7046;-90
2023/12/16 07:21:46;;;;;;;;;;;;;;;10.76;51.59;102914.88;4962039;28;6954;-90
2023/12/16 07:24:11;;;;;;;;;;;;;;;10.71;51.78;102909.34;4977818;28;8385;-90
2023/12/16 07:26:37;;;;;;;;;;;;;;;10.69;51.84;102911.78;4961334;28;6959;-90
2023/12/16 07:29:02;;;;;;;;;;;;;;;10.65;51.38;102912.28;4973997;28;6972;-90
2023/12/16 07:31:29;;;;;;;;;;;;;;;10.62;51.78;102922.28;4982933;28;7147;-90
2023/12/16 07:33:55;;;;;;;;;;;;;;;10.61;51.73;102925.59;4998761;28;6975;-91
2023/12/16 07:36:21;;;;;;;;;;;;;;;10.57;51.95;102918.41;4974523;28;8431;-90
2023/12/16 07:38:46;;;;;;;;;;;;;;;10.58;52.31;102920.19;4966672;28;7013;-91
2023/12/16 07:41:12;;;;;;;;;;;;;;;10.55;51.97;102923.38;4968521;28;8552;-91
2023/12/16 07:43:39;;;;;;;;;;;;;;;10.56;52.04;102920.03;4996019;28;6969;-91
2023/12/16 07:46:05;;;;;;;;;;;;;;;10.57;52.03;102926.09;4967702;28;7168;-91
2023/12/16 07:48:31;;;;;;;;;;;;;;;10.59;52.09;102927.13;5004903;28;6968;-90
2023/12/16 07:50:56;;;;;;;;;;;;;;;10.57;52.02;102923.53;4983608;28;7259;-91
2023/12/16 07:53:25;;;;;;;;;;;;;;;10.58;52.34;102927.88;4985563;28;6943;-91
2023/12/16 07:55:50;;;;;;;;;;;;;;;10.59;52.26;102926.22;4981568;28;6992;-91
2023/12/16 07:58:16;;;;;;;;;;;;;;;10.59;52.09;102919.41;4987273;28;7875;-92
2023/12/16 08:00:42;;;;;;;;;;;;;;;10.59;52.31;102923.66;5011832;28;6945;-93
2023/12/16 08:03:07;;;;;;;;;;;;;;;10.58;52.01;102915.06;4994578;28;7225;-92
2023/12/16 08:05:33;;;;;;;;;;;;;;;10.60;52.34;102907.53;5018135;28;7279;-90
2023/12/16 08:08:02;;;;;;;;;;;;;;;10.62;52.27;102916.25;5012568;28;7217;-93
2023/12/16 08:10:29;;;;;;;;;;;;;;;10.65;52.39;102916.50;5010705;28;6832;-93
2023/12/16 08:12:55;;;;;;;;;;;;;;;10.65;52.15;102912.28;4989862;28;7022;-91
2023/12/16 08:15:20;;;;;;;;;;;;;;;10.68;52.36;102917.66;5006426;28;6950;-92
2023/12/16 08:17:46;;;;;;;;;;;;;;;10.70;52.26;102921.25;5010224;28;7127;-90
2023/12/16 08:20:14;;;;;;;;;;;;;;;10.74;52.15;102913.84;5010465;28;6922;-93
2023/12/16 08:22:49;;;;;;;;;;;;;;;10.77;52.08;102921.81;5012737;28;6964;-91
2023/12/16 08:25:15;;;;;;;;;;;;;;;10.80;52.23;102923.00;4989553;23;6964;-73
2023/12/16 08:27:41;;;;;;;;;;;;;;;10.86;52.08;102930.31;4971417;28;6979;-74
2023/12/16 08:30:07;;;;;;;;;;;;;;;10.90;52.45;102924.66;4938660;28;6958;-76
2023/12/16 08:32:32;;;;;;;;;;;;;;;10.98;52.06;102915.97;4992362;28;6804;-75
2023/12/16 08:34:58;;;;;;;;;;;;;;;11.09;51.93;102916.00;4979541;28;7051;-73
2023/12/16 08:37:23;;;;;;;;;;;;;;;11.18;52.09;102915.91;4959117;28;7227;-73
2023/12/16 08:39:49;;;;;;;;;;;;;;;11.23;51.47;102918.09;4995343;28;7008;-73
2023/12/16 08:42:14;;;;;;;;;;;;;;;11.29;51.33;102919.38;4975763;28;7238;-73
2023/12/16 08:44:40;;;;;;;;;;;;;;;11.33;51.59;102922.34;4994765;28;6961;-72
2023/12/16 08:47:05;;;;;;;;;;;;;;;11.41;51.74;102928.16;4991977;28;6796;-74
2023/12/16 08:49:32;;;;;;;;;;;;;;;11.50;51.23;102930.59;4979586;28;8102;-75
2023/12/16 08:51:58;;;;;;;;;;;;;;;11.58;51.19;102932.13;4994843;28;6808;-73
2023/12/16 08:54:23;;;;;;;;;;;;;;;11.66;51.66;102938.84;4989443;28;7358;-73
2023/12/16 08:56:49;;;;;;;;;;;;;;;11.74;50.83;102951.44;4993828;28;6852;-74
2023/12/16 08:59:14;;;;;;;;;;;;;;;11.81;50.82;102948.56;4960989;28;6975;-74
2023/12/16 09:01:41;;;;;;;;;;;;;;;11.88;50.76;102947.41;4974544;28;7200;-73
2023/12/16 09:04:06;;;;;;;;;;;;;;;11.93;51.39;102951.28;4970330;28;7002;-73
2023/12/16 09:06:37;;;;;;;;;;;;;;;11.99;51.15;102943.19;4965417;28;7106;-76
2023/12/16 09:09:03;;;;;;;;;;;;;;;12.05;50.40;102951.44;4986247;28;6998;-73
2023/12/16 09:11:29;;;;;;;;;;;;;;;12.12;51.15;102946.03;4971460;28;7239;-76
2023/12/16 09:13:54;;;;;;;;;;;;;;;12.23;50.46;102954.63;4973808;28;6968;-74
2023/12/16 09:16:20;;;;;;;;;;;;;;;12.30;50.73;102945.72;4964895;28;7593;-76
2023/12/16 09:18:45;;;;;;;;;;;;;;;12.40;50.90;102945.69;4982920;28;7379;-75
2023/12/16 09:21:14;;;;;;;;;;;;;;;12.50;50.27;102942.22;4980715;28;6846;-74
2023/12/16 09:23:40;;;;;;;;;;;;;;;12.58;51.06;102954.03;4951167;28;6991;-73
2023/12/16 09:26:05;;;;;;;;;;;;;;;12.64;50.79;102954.50;4973036;28;7857;-76
2023/12/16 09:28:31;;;;;;;;;;;;;;;12.71;49.59;102955.00;4965255;28;7182;-73
2023/12/16 09:30:56;;;;;;;;;;;;;;;12.78;50.59;102965.03;4957957;28;6958;-75
2023/12/16 09:33:22;;;;;;;;;;;;;;;12.84;50.66;102959.47;4958447;28;6943;-73
2023/12/16 09:35:47;;;;;;;;;;;;;;;12.91;50.22;102959.19;4976259;28;6775;-75
2023/12/16 09:38:13;;;;;;;;;;;;;;;12.99;49.86;102968.41;4970228;28;6844;-72
2023/12/16 09:40:40;;;;;;;;;;;;;;;13.08;49.84;102967.31;4974616;28;6814;-73
2023/12/16 09:43:16;;;;;;;;;;;;;;;13.14;49.50;102962.66;4964900;28;6981;-73
2023/12/16 09:45:49;;;;;;;;;;;;;;;13.23;49.76;102973.69;4970322;28;6972;-75
2023/12/16 09:48:15;;;;;;;;;;;;;;;13.31;49.38;102972.63;4952586;28;6993;-74
2023/12/16 09:50:41;;;;;;;;;;;;;;;13.40;49.26;102968.97;4968317;28;7201;-73
2023/12/16 09:53:07;;;;;;;;;;;;;;;13.45;49.39;102973.72;4962455;28;8614;-75
2023/12/16 09:55:32;;;;;;;;;;;;;;;13.53;49.60;102978.56;4961961;28;7032;-74
2023/12/16 09:57:58;;;;;;;;;;;;;;;13.58;49.53;102974.66;4969058;28;6808;-73
2023/12/16 10:00:28;;;;;;;;;;;;;;;13.65;49.40;102974.34;4951316;28;7017;-73
2023/12/16 10:02:56;;;;;;;;;;;;;;;13.71;49.29;102973.94;4963706;28;8300;-75
2023/12/16 10:05:25;;;;;;;;;;;;;;;13.75;49.33;102958.81;4969771;28;7248;-75
2023/12/16 10:07:56;;;;;;;;;;;;;;;13.78;48.47;102959.81;4966142;28;6808;-77
2023/12/16 10:10:22;;;;;;;;;;;;;;;13.80;48.38;102959.16;4938726;28;7251;-75
2023/12/16 10:12:48;;;;;;;;;;;;;;;13.82;48.37;102956.72;4971768;28;6783;-76
2023/12/16 10:15:28;;;;;;;;;;;;;;;13.87;48.81;102955.34;4936399;28;6960;-76
2023/12/16 10:17:54;;;;;;;;;;;;;;;13.92;48.76;102964.34;4969784;28;7169;-76
2023/12/16 10:20:19;;;;;;;;;;;;;;;13.96;48.40;102968.94;4953839;28;6977;-75
2023/12/16 10:22:45;;;;;;;;;;;;;;;13.99;48.03;102973.44;4970801;28;6940;-75
2023/12/16 10:25:11;;;;;;;;;;;;;;;14.02;48.03;102965.91;4970832;28;6970;-76
2023/12/16 10:27:37;;;;;;;;;;;;;;;14.02;47.95;102969.41;4953377;28;7113;-75
2023/12/16 10:30:06;;;;;;;;;;;;;;;14.02;48.18;102960.75;4969642;28;6784;-76
2023/12/16 10:32:31;;;;;;;;;;;;;;;14.02;47.96;102960.75;4966057;28;6804;-75
2023/12/16 10:34:57;;;;;;;;;;;;;;;14.00;48.20;102959.75;4973011;28;6851;-75
2023/12/16 10:37:23;;;;;;;;;;;;;;;13.99;48.53;102956.28;4962864;28;6975;-75
2023/12/16 10:39:48;;;;;;;;;;;;;;;14.05;48.61;102966.19;4971208;28;6954;-76
2023/12/16 10:42:14;;;;;;;;;;;;;;;14.14;48.17;102950.47;4951781;28;6931;-76
2023/12/16 10:44:39;;;;;;;;;;;;;;;14.27;48.95;102957.44;4964571;28;6783;-76
2023/12/16 10:47:09;;;;;;;;;;;;;;;14.44;48.35;102945.78;4972554;28;7202;-76
2023/12/16 10:49:37;;;;;;;;;;;;;;;14.63;48.67;102932.53;4991459;23;7263;-76
2023/12/16 10:52:11;;;;;;;;;;;;;;;14.82;48.07;102932.19;5003368;28;9949;-76
2023/12/16 10:54:40;;;;;;;;;;;;;;;15.08;47.95;102930.53;5004688;28;6815;-75
2023/12/16 10:57:39;;;;;;;;;;;;;;;15.40;47.66;102929.28;4997905;28;6886;-76
2023/12/16 11:00:07;;;;;;;;;;;;;;;15.69;47.13;102927.78;5009544;28;7329;-76
2023/12/16 11:02:42;;;;;;;;;;;;;;;15.98;46.87;102930.53;5004500;28;7278;-76
2023/12/16 11:05:36;;;;;;;;;;;;;;;16.15;46.11;102933.34;4980653;28;7000;-76
2023/12/16 11:08:02;;;;;;;;;;;;;;;16.15;45.71;102930.75;4994950;28;7202;-76
2023/12/16 11:10:31;;;;;;;;;;;;;;;16.02;45.66;102934.22;4989745;28;7072;-76
2023/12/16 11:12:59;;;;;;;;;;;;;;;15.88;45.80;102944.53;5004953;28;7192;-77
2023/12/16 11:15:25;;;;;;;;;;;;;;;15.71;46.04;102938.25;4988851;28;7531;-76
2023/12/16 11:18:17;;;;;;;;;;;;;;;15.58;46.10;102930.44;5006503;28;7646;-77
2023/12/16 11:20:48;;;;;;;;;;;;;;;15.54;46.20;102929.31;5026697;23;8867;-76
2023/12/16 11:23:17;;;;;;;;;;;;;;;15.58;45.98;102917.50;4983745;28;6803;-76
2023/12/16 11:25:43;;;;;;;;;;;;;;;15.51;45.92;102919.69;4999426;28;7134;-74
2023/12/16 11:28:13;;;;;;;;;;;;;;;15.46;46.21;102912.41;4986313;28;7256;-75
2023/12/16 11:30:40;;;;;;;;;;;;;;;15.39;46.64;102912.00;4975372;28;7223;-75
2023/12/16 11:33:06;;;;;;;;;;;;;;;15.31;45.84;102902.81;4949324;28;7037;-75
2023/12/16 11:35:35;;;;;;;;;;;;;;;15.19;46.08;102900.28;4975601;28;6855;-75
2023/12/16 11:38:01;;;;;;;;;;;;;;;15.10;46.68;102895.38;4957691;28;8933;-75
2023/12/16 11:40:39;;;;;;;;;;;;;;;15.04;46.81;102894.94;4977238;28;6828;-75
2023/12/16 11:43:05;;;;;;;;;;;;;;;15.02;47.29;102890.47;4977134;28;6831;-75
2023/12/16 11:45:37;;;;;;;;;;;;;;;15.03;47.46;102892.28;4970448;28;7836;-75
2023/12/16 11:48:04;;;;;;;;;;;;;;;15.04;47.54;102878.56;4973864;28;7174;-75
2023/12/16 11:50:31;;;;;;;;;;;;;;;15.04;47.47;102879.44;4958663;28;6791;-75
2023/12/16 11:52:57;;;;;;;;;;;;;;;15.01;47.52;102879.25;4944225;28;9971;-75
2023/12/16 11:55:22;;;;;;;;;;;;;;;15.00;47.68;102877.47;4967788;28;6959;-75
2023/12/16 11:57:48;;;;;;;;;;;;;;;14.98;47.40;102871.31;4963699;28;8234;-75
2023/12/16 12:00:16;;;;;;;;;;;;;;;14.98;47.70;102871.31;4958985;28;6772;-75
2023/12/16 12:02:42;;;;;;;;;;;;;;;14.99;47.34;102871.38;4967137;28;6808;-76
2023/12/16 12:05:12;;;;;;;;;;;;;;;15.02;47.64;102870.72;4958786;28;6800;-75
2023/12/16 12:07:41;;;;;;;;;;;;;;;15.06;47.70;102867.53;4965445;28;7004;-75
2023/12/16 12:10:08;;;;;;;;;;;;;;;15.06;47.55;102867.53;4966465;28;7217;-75
2023/12/16 12:12:34;;;;;;;;;;;;;;;15.08;47.93;102870.22;4975410;28;6827;-75
2023/12/16 12:15:00;;;;;;;;;;;;;;;15.08;47.48;102857.31;4974747;28;6792;-75
2023/12/16 12:17:26;;;;;;;;;;;;;;;15.05;47.71;102870.03;4975699;28;6787;-75
2023/12/16 12:19:52;;;;;;;;;;;;;;;15.00;47.87;102861.97;4959094;28;6820;-75
2023/12/16 12:22:20;;;;;;;;;;;;;;;14.98;47.63;102871.31;4972812;28;6791;-75
2023/12/16 12:24:46;;;;;;;;;;;;;;;14.94;48.04;102867.59;4965883;28;6808;-75
2023/12/16 12:27:11;;;;;;;;;;;;;;;14.91;48.33;102864.78;4958493;28;6792;-76
2023/12/16 12:29:54;;;;;;;;;;;;;;;14.84;48.42;102860.88;4944008;28;7282;-80
2023/12/16 12:32:20;;;;;;;;;;;;;;;14.80;47.74;102858.91;4966666;28;8521;-76
2023/12/16 12:34:45;;;;;;;;;;;;;;;14.76;48.36;102862.03;4993966;28;6784;-78
2023/12/16 12:37:11;;;;;;;;;;;;;;;14.73;48.48;102867.00;4971514;28;7113;-81
2023/12/16 12:39:37;;;;;;;;;;;;;;;14.68;48.50;102863.16;4975952;28;6795;-77
2023/12/16 12:42:03;;;;;;;;;;;;;;;14.64;48.38;102856.91;4981661;28;6966;-82
2023/12/16 12:44:30;;;;;;;;;;;;;;;14.59;48.80;102855.66;4984341;28;6800;-78
2023/12/16 12:46:56;;;;;;;;;;;;;;;14.56;48.75;102858.91;4996585;28;7006;-77
2023/12/16 12:49:32;;;;;;;;;;;;;;;14.50;48.77;102855.91;4980043;28;6974;-76